La rose des vents
Donnes mto: Semaine 21/05/07 - 27/05/07 (S 21)
Date Horaire Temp. E. Hum. E. P.atmo. Pluie Vent 1mn Direction Ensoleilleme Ev.Tr. Solaire P. de rose Temp au vent Rafales
21/05/2007 00:00 19,1 C 63 % 1013,1 hPa 0,0 l/m 2,9 km/h (1 Bft) NO 0,00 h 0,051 mm 0 W/m 11,8 C 19,1 C 4,9 km/h (1 Bft)
21/05/2007 01:00 18,9 C 61 % 1013,1 hPa 0,0 l/m 2,9 km/h (1 Bft) N-NO 0,00 h 0,051 mm 0 W/m 11,2 C 18,9 C 5,0 km/h (1 Bft)
21/05/2007 02:00 18,6 C 62 % 1013,3 hPa 0,0 l/m 1,7 km/h (1 Bft) N-NO 0,00 h 0,051 mm 0 W/m 11,2 C 18,6 C 3,5 km/h (1 Bft)
21/05/2007 03:00 18,4 C 62 % 1013,4 hPa 0,0 l/m 1,7 km/h (1 Bft) N-NO 0,00 h 0,051 mm 0 W/m 11,1 C 18,4 C 3,0 km/h (1 Bft)
21/05/2007 04:00 18,2 C 63 % 1013,4 hPa 0,0 l/m 3,1 km/h (1 Bft) N-NO 0,00 h 0,051 mm 0 W/m 11,0 C 18,2 C 4,8 km/h (1 Bft)
21/05/2007 05:00 19,3 C 60 % 1013,7 hPa 0,0 l/m 3,8 km/h (1 Bft) O-NO 0,00 h 0,051 mm 0 W/m 11,3 C 19,3 C 5,3 km/h (1 Bft)
21/05/2007 06:00 18,7 C 63 % 1014,0 hPa 0,0 l/m 3,3 km/h (1 Bft) O-NO 0,02 h 0,025 mm 23 W/m 11,6 C 18,7 C 5,4 km/h (1 Bft)
21/05/2007 07:00 19,5 C 63 % 1014,5 hPa 0,0 l/m 1,2 km/h (1 Bft) S 0,48 h 0,051 mm 124 W/m 12,4 C 19,5 C 2,5 km/h (1 Bft)
21/05/2007 08:00 22,0 C 60 % 1014,7 hPa 0,0 l/m 0,5 km/h (0 Bft) E 1,00 h 0,076 mm 325 W/m 13,9 C 22,0 C 1,9 km/h (1 Bft)
21/05/2007 09:00 23,5 C 57 % 1014,8 hPa 0,0 l/m 1,0 km/h (0 Bft) E 0,80 h 0,203 mm 432 W/m 14,4 C 23,5 C 2,4 km/h (1 Bft)
21/05/2007 10:00 25,9 C 49 % 1014,7 hPa 0,0 l/m 6,7 km/h (2 Bft) E 1,00 h 0,279 mm 638 W/m 14,4 C 25,9 C 10,3 km/h (2 Bft)
21/05/2007 11:00 24,8 C 54 % 1015,1 hPa 0,0 l/m 9,9 km/h (2 Bft) E 0,88 h 0,457 mm 644 W/m 14,7 C 24,8 C 14,8 km/h (3 Bft)
21/05/2007 12:00 25,5 C 48 % 1015,0 hPa 0,0 l/m 7,6 km/h (2 Bft) E 0,68 h 0,483 mm 578 W/m 13,7 C 25,5 C 12,6 km/h (3 Bft)
21/05/2007 13:00 23,9 C 51 % 1015,0 hPa 0,0 l/m 7,1 km/h (2 Bft) E 0,28 h 0,432 mm 452 W/m 13,3 C 23,9 C 12,4 km/h (3 Bft)
21/05/2007 14:00 24,6 C 49 % 1015,4 hPa 0,0 l/m 5,3 km/h (1 Bft) E-SE 0,72 h 0,330 mm 549 W/m 13,2 C 24,6 C 8,7 km/h (2 Bft)
21/05/2007 15:00 24,5 C 49 % 1015,1 hPa 0,0 l/m 2,2 km/h (1 Bft) E-SE 0,27 h 0,381 mm 412 W/m 13,1 C 24,5 C 4,5 km/h (1 Bft)
21/05/2007 16:00 24,9 C 50 % 1014,7 hPa 0,0 l/m 4,7 km/h (1 Bft) E-SE 0,30 h 0,279 mm 374 W/m 13,6 C 24,9 C 7,7 km/h (2 Bft)
21/05/2007 17:00 23,8 C 54 % 1014,4 hPa 0,0 l/m 1,8 km/h (1 Bft) E-SE 0,03 h 0,279 mm 253 W/m 13,8 C 23,8 C 3,7 km/h (1 Bft)
21/05/2007 18:00 24,3 C 51 % 1014,2 hPa 0,0 l/m 0,7 km/h (0 Bft) E-SE 0,52 h 0,178 mm 232 W/m 13,4 C 24,3 C 1,7 km/h (1 Bft)
21/05/2007 19:00 23,4 C 54 % 1013,9 hPa 0,0 l/m 0,6 km/h (0 Bft) O-SO 0,00 h 0,152 mm 58 W/m 13,6 C 23,4 C 1,4 km/h (1 Bft)
21/05/2007 20:00 22,5 C 55 % 1013,7 hPa 0,0 l/m 2,2 km/h (1 Bft) O-SO 0,03 h 0,051 mm 20 W/m 13,1 C 22,5 C 3,4 km/h (1 Bft)
21/05/2007 21:00 21,3 C 59 % 1013,7 hPa 0,0 l/m 0,4 km/h (0 Bft) O 0,00 h 0,025 mm 0 W/m 13,1 C 21,3 C 1,0 km/h (0 Bft)
21/05/2007 22:00 20,8 C 62 % 1014,1 hPa 0,0 l/m 1,0 km/h (0 Bft) O 0,00 h 0,025 mm 0 W/m 13,1 C 20,8 C 1,4 km/h (1 Bft)
21/05/2007 23:00 20,6 C 61 % 1014,3 hPa 0,0 l/m 3,9 km/h (1 Bft) O-NO 0,00 h 0,051 mm 0 W/m 12,9 C 20,6 C 6,0 km/h (2 Bft)
22/05/2007 00:00 20,6 C 61 % 1014,3 hPa 0,0 l/m 3,2 km/h (1 Bft) O-NO 0,00 h 0,051 mm 0 W/m 12,8 C 20,6 C 4,4 km/h (1 Bft)
22/05/2007 01:00 20,6 C 59 % 1014,4 hPa 0,0 l/m 2,3 km/h (1 Bft) O-NO 0,00 h 0,051 mm 0 W/m 12,4 C 20,6 C 3,6 km/h (1 Bft)
22/05/2007 02:00 20,4 C 58 % 1014,2 hPa 0,0 l/m 3,7 km/h (1 Bft) O-NO 0,00 h 0,051 mm 0 W/m 11,7 C 20,4 C 5,4 km/h (1 Bft)
22/05/2007 03:00 19,4 C 58 % 1014,5 hPa 0,0 l/m 4,2 km/h (1 Bft) NO 0,00 h 0,051 mm 0 W/m 10,9 C 19,4 C 7,3 km/h (2 Bft)
22/05/2007 04:00 19,8 C 58 % 1014,6 hPa 0,0 l/m 0,5 km/h (0 Bft) NO 0,00 h 0,051 mm 0 W/m 11,2 C 19,8 C 1,1 km/h (1 Bft)
22/05/2007 05:00 19,8 C 57 % 1014,3 hPa 0,0 l/m 3,3 km/h (1 Bft) O-NO 0,00 h 0,051 mm 0 W/m 11,0 C 19,8 C 4,5 km/h (1 Bft)
22/05/2007 06:00 19,8 C 58 % 1014,1 hPa 0,0 l/m 3,3 km/h (1 Bft) NO 0,00 h 0,025 mm 28 W/m 11,2 C 19,8 C 5,4 km/h (1 Bft)
22/05/2007 07:00 20,6 C 58 % 1014,1 hPa 0,0 l/m 2,5 km/h (1 Bft) O-SO 0,40 h 0,051 mm 123 W/m 12,1 C 20,6 C 3,7 km/h (1 Bft)
22/05/2007 08:00 23,1 C 56 % 1014,2 hPa 0,0 l/m 1,5 km/h (1 Bft) NE 1,00 h 0,102 mm 293 W/m 13,8 C 23,1 C 2,9 km/h (1 Bft)
22/05/2007 09:00 24,4 C 52 % 1014,1 hPa 0,0 l/m 2,3 km/h (1 Bft) E 1,00 h 0,203 mm 463 W/m 13,9 C 24,4 C 4,4 km/h (1 Bft)
22/05/2007 10:00 25,7 C 53 % 1014,1 hPa 0,0 l/m 5,2 km/h (1 Bft) E 1,00 h 0,305 mm 613 W/m 15,4 C 25,7 C 8,2 km/h (2 Bft)
22/05/2007 11:00 25,7 C 56 % 1014,4 hPa 0,0 l/m 8,5 km/h (2 Bft) E 1,00 h 0,432 mm 728 W/m 16,2 C 25,7 C 11,9 km/h (2 Bft)
22/05/2007 12:00 26,0 C 54 % 1014,6 hPa 0,0 l/m 8,7 km/h (2 Bft) E 1,00 h 0,533 mm 801 W/m 16,0 C 26,0 C 13,0 km/h (3 Bft)
22/05/2007 13:00 26,8 C 51 % 1014,6 hPa 0,0 l/m 9,9 km/h (2 Bft) E 1,00 h 0,584 mm 825 W/m 15,8 C 26,8 C 14,3 km/h (3 Bft)
22/05/2007 14:00 27,0 C 51 % 1014,5 hPa 0,0 l/m 7,1 km/h (2 Bft) E 1,00 h 0,610 mm 792 W/m 16,0 C 27,0 C 10,9 km/h (2 Bft)
22/05/2007 15:00 27,3 C 50 % 1014,1 hPa 0,0 l/m 6,4 km/h (2 Bft) E 1,00 h 0,559 mm 708 W/m 16,0 C 27,3 C 10,0 km/h (2 Bft)
22/05/2007 16:00 27,5 C 45 % 1014,2 hPa 0,0 l/m 3,9 km/h (1 Bft) E 1,00 h 0,508 mm 590 W/m 14,3 C 27,5 C 6,5 km/h (2 Bft)
22/05/2007 17:00 27,9 C 44 % 1014,0 hPa 0,0 l/m 3,2 km/h (1 Bft) E 1,00 h 0,432 mm 485 W/m 14,5 C 27,9 C 5,9 km/h (2 Bft)
22/05/2007 18:00 27,5 C 44 % 1013,4 hPa 0,0 l/m 13,6 km/h (3 Bft) S-SO 0,78 h 0,356 mm 283 W/m 14,1 C 27,5 C 18,3 km/h (3 Bft)
22/05/2007 19:00 26,4 C 47 % 1012,5 hPa 0,0 l/m 16,4 km/h (3 Bft) SO 0,60 h 0,330 mm 133 W/m 14,0 C 26,4 C 21,4 km/h (4 Bft)
22/05/2007 20:00 24,8 C 57 % 1012,7 hPa 0,0 l/m 2,2 km/h (1 Bft) O-NO 0,00 h 0,229 mm 28 W/m 15,6 C 24,8 C 4,1 km/h (1 Bft)
22/05/2007 21:00 23,7 C 61 % 1012,6 hPa 0,0 l/m 4,1 km/h (1 Bft) O-NO 0,00 h 0,051 mm 0 W/m 15,7 C 23,7 C 6,0 km/h (2 Bft)
22/05/2007 22:00 22,7 C 63 % 1012,3 hPa 0,0 l/m 1,1 km/h (1 Bft) N-NO 0,00 h 0,025 mm 0 W/m 15,3 C 22,7 C 2,8 km/h (1 Bft)
22/05/2007 23:00 22,0 C 64 % 1011,9 hPa 0,0 l/m 2,9 km/h (1 Bft) O-SO 0,00 h 0,051 mm 0 W/m 15,0 C 22,0 C 3,9 km/h (1 Bft)
23/05/2007 00:00 22,2 C 63 % 1011,7 hPa 0,0 l/m 5,7 km/h (1 Bft) O-SO 0,00 h 0,051 mm 0 W/m 14,8 C 22,2 C 7,8 km/h (2 Bft)
23/05/2007 01:00 21,5 C 66 % 1012,4 hPa 0,0 l/m 4,2 km/h (1 Bft) SE 0,00 h 0,076 mm 0 W/m 14,8 C 21,5 C 6,0 km/h (2 Bft)
23/05/2007 02:00 19,5 C 79 % 1012,4 hPa 0,0 l/m 1,1 km/h (1 Bft) O-SO 0,00 h 0,051 mm 0 W/m 15,8 C 19,5 C 1,7 km/h (1 Bft)
23/05/2007 03:00 18,7 C 82 % 1011,9 hPa 0,0 l/m 0,3 km/h (0 Bft) O-SO 0,00 h 0,025 mm 0 W/m 15,6 C 18,7 C 1,0 km/h (0 Bft)
23/05/2007 04:00 18,4 C 79 % 1011,5 hPa 0,0 l/m 4,5 km/h (1 Bft) SO 0,00 h 0,025 mm 0 W/m 14,7 C 18,4 C 5,6 km/h (1 Bft)
23/05/2007 05:00 18,0 C 81 % 1011,9 hPa 0,0 l/m 3,5 km/h (1 Bft) O-SO 0,00 h 0,025 mm 5 W/m 14,7 C 18,0 C 5,2 km/h (1 Bft)
23/05/2007 06:00 18,1 C 83 % 1012,2 hPa 0,0 l/m 3,2 km/h (1 Bft) O-SO 0,05 h 0,025 mm 25 W/m 15,1 C 18,1 C 4,6 km/h (1 Bft)
23/05/2007 07:00 19,2 C 79 % 1012,7 hPa 0,0 l/m 0,5 km/h (0 Bft) SO 0,47 h 0,025 mm 124 W/m 15,5 C 19,2 C 1,3 km/h (1 Bft)
23/05/2007 08:00 21,6 C 63 % 1013,0 hPa 0,0 l/m 0,7 km/h (0 Bft) O-SO 1,00 h 0,076 mm 318 W/m 14,3 C 21,6 C 2,2 km/h (1 Bft)
23/05/2007 09:00 24,3 C 59 % 1012,9 hPa 0,0 l/m 1,3 km/h (1 Bft) E 1,00 h 0,203 mm 483 W/m 15,6 C 24,3 C 3,1 km/h (1 Bft)
23/05/2007 10:00 26,7 C 53 % 1012,8 hPa 0,0 l/m 5,1 km/h (1 Bft) E 1,00 h 0,305 mm 634 W/m 16,3 C 26,7 C 7,7 km/h (2 Bft)
23/05/2007 11:00 26,8 C 54 % 1013,0 hPa 0,0 l/m 6,3 km/h (2 Bft) E-SE 1,00 h 0,457 mm 755 W/m 16,6 C 26,8 C 8,8 km/h (2 Bft)
23/05/2007 12:00 27,6 C 51 % 1013,1 hPa 0,0 l/m 7,2 km/h (2 Bft) E 1,00 h 0,533 mm 839 W/m 16,4 C 27,6 C 10,1 km/h (2 Bft)
23/05/2007 13:00 27,4 C 54 % 1012,9 hPa 0,0 l/m 7,4 km/h (2 Bft) E 1,00 h 0,610 mm 855 W/m 17,3 C 27,4 C 10,6 km/h (2 Bft)
23/05/2007 14:00 27,0 C 56 % 1012,8 hPa 0,0 l/m 7,6 km/h (2 Bft) E 1,00 h 0,610 mm 833 W/m 17,5 C 27,0 C 12,2 km/h (2 Bft)
23/05/2007 15:00 24,8 C 63 % 1012,7 hPa 0,0 l/m 5,5 km/h (1 Bft) E 0,35 h 0,584 mm 409 W/m 17,3 C 24,8 C 7,8 km/h (2 Bft)
23/05/2007 16:00 25,0 C 60 % 1012,6 hPa 0,0 l/m 2,7 km/h (1 Bft) E 0,77 h 0,305 mm 484 W/m 16,6 C 25,0 C 4,9 km/h (1 Bft)
23/05/2007 17:00 26,9 C 48 % 1012,5 hPa 0,0 l/m 3,7 km/h (1 Bft) E-NE 0,48 h 0,330 mm 324 W/m 14,8 C 26,9 C 5,8 km/h (2 Bft)
23/05/2007 18:00 24,6 C 56 % 1012,4 hPa 0,0 l/m 1,5 km/h (1 Bft) E 0,00 h 0,254 mm 128 W/m 15,3 C 24,6 C 2,6 km/h (1 Bft)
23/05/2007 19:00 24,1 C 62 % 1012,0 hPa 0,0 l/m 0,4 km/h (0 Bft) S 0,00 h 0,102 mm 89 W/m 16,3 C 24,1 C 0,9 km/h (0 Bft)
23/05/2007 20:00 23,0 C 64 % 1012,1 hPa 0,0 l/m 1,3 km/h (1 Bft) S-SE 0,03 h 0,076 mm 25 W/m 15,9 C 23,0 C 2,0 km/h (1 Bft)
23/05/2007 21:00 21,0 C 70 % 1012,3 hPa 0,0 l/m 1,5 km/h (1 Bft) S-SO 0,00 h 0,025 mm 0 W/m 15,3 C 21,0 C 2,6 km/h (1 Bft)
23/05/2007 22:00 20,7 C 69 % 1012,9 hPa 0,0 l/m 1,9 km/h (1 Bft) S-SO 0,00 h 0,025 mm 0 W/m 14,7 C 20,7 C 2,9 km/h (1 Bft)
23/05/2007 23:00 20,5 C 69 % 1013,0 hPa 0,0 l/m 3,5 km/h (1 Bft) O-NO 0,00 h 0,051 mm 0 W/m 14,5 C 20,5 C 5,2 km/h (1 Bft)
24/05/2007 00:00 20,4 C 71 % 1012,9 hPa 0,0 l/m 2,3 km/h (1 Bft) NO 0,00 h 0,051 mm 0 W/m 14,9 C 20,4 C 3,7 km/h (1 Bft)
24/05/2007 01:00 20,2 C 71 % 1012,8 hPa 0,0 l/m 2,5 km/h (1 Bft) SO 0,00 h 0,051 mm 0 W/m 14,6 C 20,2 C 3,7 km/h (1 Bft)
24/05/2007 02:00 20,1 C 68 % 1012,4 hPa 0,0 l/m 0,7 km/h (0 Bft) O-SO 0,00 h 0,051 mm 0 W/m 13,9 C 20,1 C 1,4 km/h (1 Bft)
24/05/2007 03:00 19,9 C 66 % 1012,4 hPa 0,0 l/m 2,8 km/h (1 Bft) O 0,00 h 0,025 mm 0 W/m 13,3 C 19,9 C 4,3 km/h (1 Bft)
24/05/2007 04:00 19,2 C 66 % 1012,2 hPa 0,0 l/m 3,0 km/h (1 Bft) O-NO 0,00 h 0,051 mm 0 W/m 12,6 C 19,2 C 4,6 km/h (1 Bft)
24/05/2007 05:00 19,6 C 64 % 1012,0 hPa 0,0 l/m 3,0 km/h (1 Bft) N-NO 0,00 h 0,051 mm 5 W/m 12,5 C 19,6 C 5,0 km/h (1 Bft)
24/05/2007 06:00 20,2 C 62 % 1012,0 hPa 0,0 l/m 2,2 km/h (1 Bft) O 0,03 h 0,025 mm 29 W/m 12,8 C 20,2 C 3,5 km/h (1 Bft)
24/05/2007 07:00 21,5 C 60 % 1012,6 hPa 0,0 l/m 1,8 km/h (1 Bft) O-NO 0,47 h 0,051 mm 129 W/m 13,2 C 21,5 C 3,4 km/h (1 Bft)
24/05/2007 08:00 24,7 C 50 % 1012,8 hPa 0,0 l/m 0,9 km/h (0 Bft) N-NO 1,00 h 0,102 mm 323 W/m 13,7 C 24,7 C 2,2 km/h (1 Bft)
24/05/2007 09:00 27,3 C 43 % 1013,0 hPa 0,0 l/m 3,2 km/h (1 Bft) NE 1,00 h 0,229 mm 490 W/m 13,4 C 27,3 C 5,8 km/h (2 Bft)
24/05/2007 10:00 28,9 C 37 % 1013,4 hPa 0,0 l/m 4,3 km/h (1 Bft) E 1,00 h 0,356 mm 634 W/m 12,6 C 28,9 C 7,3 km/h (2 Bft)
24/05/2007 11:00 29,6 C 36 % 1013,5 hPa 0,0 l/m 6,3 km/h (2 Bft) E 1,00 h 0,483 mm 749 W/m 12,8 C 29,6 C 10,2 km/h (2 Bft)
24/05/2007 12:00 29,8 C 34 % 1013,6 hPa 0,0 l/m 6,7 km/h (2 Bft) E 1,00 h 0,584 mm 820 W/m 12,3 C 29,8 C 11,4 km/h (2 Bft)
24/05/2007 13:00 29,6 C 37 % 1013,3 hPa 0,0 l/m 6,7 km/h (2 Bft) E 1,00 h 0,635 mm 833 W/m 13,2 C 29,6 C 10,9 km/h (2 Bft)
24/05/2007 14:00 29,7 C 37 % 1012,6 hPa 0,0 l/m 9,2 km/h (2 Bft) E 1,00 h 0,635 mm 815 W/m 13,5 C 29,7 C 13,9 km/h (3 Bft)
24/05/2007 15:00 29,5 C 37 % 1012,1 hPa 0,0 l/m 6,9 km/h (2 Bft) E 1,00 h 0,635 mm 747 W/m 13,3 C 29,5 C 11,6 km/h (2 Bft)
24/05/2007 16:00 29,0 C 39 % 1011,5 hPa 0,0 l/m 6,3 km/h (2 Bft) E 1,00 h 0,584 mm 619 W/m 13,8 C 29,0 C 10,0 km/h (2 Bft)
24/05/2007 17:00 28,6 C 41 % 1011,3 hPa 0,0 l/m 5,4 km/h (1 Bft) E 1,00 h 0,483 mm 481 W/m 13,9 C 28,6 C 8,7 km/h (2 Bft)
24/05/2007 18:00 27,2 C 44 % 1011,1 hPa 0,0 l/m 3,9 km/h (1 Bft) E 1,00 h 0,381 mm 310 W/m 14,0 C 27,2 C 6,4 km/h (2 Bft)
24/05/2007 19:00 25,7 C 50 % 1011,2 hPa 0,0 l/m 1,3 km/h (1 Bft) E 0,72 h 0,254 mm 143 W/m 14,4 C 25,7 C 2,9 km/h (1 Bft)
24/05/2007 20:00 23,6 C 59 % 1011,2 hPa 0,0 l/m 0,0 km/h (0 Bft) N 0,00 h 0,102 mm 27 W/m 15,0 C 23,6 C 0,3 km/h (0 Bft)
24/05/2007 21:00 21,8 C 63 % 1011,1 hPa 0,0 l/m 0,9 km/h (0 Bft) NO 0,00 h 0,025 mm 0 W/m 14,5 C 21,8 C 1,8 km/h (1 Bft)
24/05/2007 22:00 21,7 C 61 % 1011,5 hPa 0,0 l/m 2,3 km/h (1 Bft) O-NO 0,00 h 0,025 mm 0 W/m 13,9 C 21,7 C 3,9 km/h (1 Bft)
24/05/2007 23:00 21,7 C 59 % 1011,4 hPa 0,0 l/m 2,1 km/h (1 Bft) O 0,00 h 0,051 mm 0 W/m 13,3 C 21,7 C 3,4 km/h (1 Bft)
25/05/2007 00:00 21,5 C 57 % 1011,3 hPa 0,0 l/m 4,2 km/h (1 Bft) O-NO 0,00 h 0,051 mm 0 W/m 12,5 C 21,5 C 6,0 km/h (2 Bft)
25/05/2007 01:00 21,2 C 55 % 1011,2 hPa 0,0 l/m 4,7 km/h (1 Bft) NO 0,00 h 0,076 mm 0 W/m 11,8 C 21,2 C 7,6 km/h (2 Bft)
25/05/2007 02:00 21,6 C 51 % 1010,7 hPa 0,0 l/m 3,2 km/h (1 Bft) O-NO 0,00 h 0,076 mm 0 W/m 11,1 C 21,6 C 5,8 km/h (2 Bft)
25/05/2007 03:00 21,3 C 51 % 1010,6 hPa 0,0 l/m 4,5 km/h (1 Bft) O-NO 0,00 h 0,076 mm 0 W/m 10,6 C 21,3 C 7,1 km/h (2 Bft)
25/05/2007 04:00 21,0 C 51 % 1010,2 hPa 0,0 l/m 4,1 km/h (1 Bft) NO 0,00 h 0,076 mm 0 W/m 10,5 C 21,0 C 6,1 km/h (2 Bft)
25/05/2007 05:00 20,7 C 51 % 1010,2 hPa 0,0 l/m 2,7 km/h (1 Bft) NO 0,00 h 0,076 mm 5 W/m 10,2 C 20,7 C 4,5 km/h (1 Bft)
25/05/2007 06:00 20,0 C 53 % 1010,2 hPa 0,0 l/m 1,1 km/h (0 Bft) NO 0,07 h 0,025 mm 29 W/m 10,1 C 20,0 C 2,1 km/h (1 Bft)
25/05/2007 07:00 20,5 C 55 % 1010,3 hPa 0,0 l/m 1,0 km/h (0 Bft) SO 0,23 h 0,025 mm 81 W/m 11,2 C 20,5 C 1,9 km/h (1 Bft)
25/05/2007 08:00 23,1 C 49 % 1010,6 hPa 0,0 l/m 1,1 km/h (0 Bft) N 0,70 h 0,076 mm 286 W/m 11,8 C 23,1 C 2,7 km/h (1 Bft)
25/05/2007 09:00 25,9 C 46 % 1011,0 hPa 0,0 l/m 1,7 km/h (1 Bft) E-SE 1,00 h 0,178 mm 483 W/m 13,2 C 25,9 C 3,7 km/h (1 Bft)
25/05/2007 10:00 27,6 C 43 % 1010,9 hPa 0,0 l/m 4,0 km/h (1 Bft) E 1,00 h 0,330 mm 635 W/m 13,7 C 27,6 C 7,1 km/h (2 Bft)
25/05/2007 11:00 29,0 C 39 % 1010,8 hPa 0,0 l/m 5,7 km/h (1 Bft) E 1,00 h 0,457 mm 757 W/m 13,7 C 29,0 C 9,5 km/h (2 Bft)
25/05/2007 12:00 29,8 C 37 % 1010,4 hPa 0,0 l/m 6,3 km/h (2 Bft) E 1,00 h 0,559 mm 791 W/m 13,7 C 29,8 C 10,6 km/h (2 Bft)
25/05/2007 13:00 29,4 C 38 % 1009,9 hPa 0,0 l/m 7,2 km/h (2 Bft) E 0,88 h 0,610 mm 754 W/m 13,6 C 29,4 C 11,6 km/h (2 Bft)
25/05/2007 14:00 30,0 C 33 % 1009,3 hPa 0,0 l/m 8,0 km/h (2 Bft) E-NE 1,00 h 0,584 mm 782 W/m 11,8 C 30,0 C 12,1 km/h (2 Bft)
25/05/2007 15:00 30,6 C 32 % 1008,3 hPa 0,0 l/m 8,3 km/h (2 Bft) E 1,00 h 0,635 mm 707 W/m 12,1 C 30,6 C 12,9 km/h (3 Bft)
25/05/2007 16:00 28,2 C 39 % 1008,0 hPa 0,0 l/m 5,2 km/h (1 Bft) E 0,53 h 0,584 mm 409 W/m 13,0 C 28,2 C 9,1 km/h (2 Bft)
25/05/2007 17:00 27,1 C 41 % 1008,0 hPa 0,0 l/m 3,1 km/h (1 Bft) E 0,30 h 0,330 mm 313 W/m 12,8 C 27,1 C 5,7 km/h (1 Bft)
25/05/2007 18:00 25,8 C 45 % 1007,3 hPa 0,0 l/m 3,7 km/h (1 Bft) E 0,00 h 0,229 mm 125 W/m 12,8 C 25,8 C 5,8 km/h (2 Bft)
25/05/2007 19:00 24,9 C 48 % 1006,6 hPa 0,0 l/m 6,1 km/h (2 Bft) SO 0,00 h 0,127 mm 45 W/m 13,0 C 24,9 C 8,6 km/h (2 Bft)
25/05/2007 20:00 23,6 C 53 % 1006,5 hPa 0,0 l/m 3,2 km/h (1 Bft) N-NE 0,00 h 0,102 mm 12 W/m 13,3 C 23,6 C 5,8 km/h (2 Bft)
25/05/2007 21:00 22,9 C 55 % 1007,5 hPa 0,0 l/m 6,6 km/h (2 Bft) S-SO 0,00 h 0,051 mm 0 W/m 13,3 C 22,9 C 9,4 km/h (2 Bft)
25/05/2007 22:00 22,6 C 52 % 1006,8 hPa 0,0 l/m 5,0 km/h (1 Bft) N 0,00 h 0,051 mm 0 W/m 12,1 C 22,6 C 8,9 km/h (2 Bft)
25/05/2007 23:00 23,0 C 48 % 1006,3 hPa 0,0 l/m 4,3 km/h (1 Bft) NE 0,00 h 0,076 mm 0 W/m 11,2 C 23,0 C 7,3 km/h (2 Bft)
26/05/2007 00:00 21,9 C 48 % 1005,9 hPa 0,0 l/m 1,6 km/h (1 Bft) N 0,00 h 0,076 mm 0 W/m 10,4 C 21,9 C 3,3 km/h (1 Bft)
26/05/2007 01:00 20,9 C 51 % 1005,5 hPa 0,0 l/m 2,0 km/h (1 Bft) N-NO 0,00 h 0,051 mm 0 W/m 10,3 C 20,9 C 3,6 km/h (1 Bft)
26/05/2007 02:00 21,7 C 45 % 1005,2 hPa 0,0 l/m 1,9 km/h (1 Bft) O-NO 0,00 h 0,051 mm 0 W/m 9,2 C 21,7 C 3,4 km/h (1 Bft)
26/05/2007 03:00 21,2 C 46 % 1005,0 hPa 0,0 l/m 1,8 km/h (1 Bft) SO 0,00 h 0,076 mm 0 W/m 9,2 C 21,2 C 3,3 km/h (1 Bft)
26/05/2007 04:00 20,6 C 49 % 1004,9 hPa 0,0 l/m 2,2 km/h (1 Bft) O 0,00 h 0,076 mm 0 W/m 9,4 C 20,6 C 3,7 km/h (1 Bft)
26/05/2007 05:00 20,8 C 52 % 1004,9 hPa 0,0 l/m 2,4 km/h (1 Bft) S-SE 0,00 h 0,076 mm 0 W/m 10,5 C 20,8 C 4,1 km/h (1 Bft)
26/05/2007 06:00 20,5 C 63 % 1005,5 hPa 0,0 l/m 3,7 km/h (1 Bft) NE 0,00 h 0,025 mm 23 W/m 13,1 C 20,5 C 6,3 km/h (2 Bft)
26/05/2007 07:00 20,2 C 66 % 1005,1 hPa 0,0 l/m 1,8 km/h (1 Bft) NE 0,00 h 0,051 mm 74 W/m 13,7 C 20,2 C 3,5 km/h (1 Bft)
26/05/2007 08:00 21,5 C 61 % 1004,5 hPa 0,0 l/m 1,9 km/h (1 Bft) N 0,05 h 0,051 mm 153 W/m 13,7 C 21,5 C 3,5 km/h (1 Bft)
26/05/2007 09:00 22,4 C 58 % 1004,5 hPa 0,0 l/m 2,0 km/h (1 Bft) E 0,03 h 0,102 mm 202 W/m 13,7 C 22,4 C 3,8 km/h (1 Bft)
26/05/2007 10:00 23,0 C 60 % 1005,0 hPa 0,0 l/m 3,4 km/h (1 Bft) SE 0,00 h 0,152 mm 235 W/m 14,7 C 23,0 C 6,7 km/h (2 Bft)
26/05/2007 11:00 22,1 C 72 % 1006,3 hPa 0,0 l/m 15,6 km/h (3 Bft) E 0,02 h 0,178 mm 251 W/m 16,7 C 22,1 C 22,8 km/h (4 Bft)
26/05/2007 12:00 21,0 C 82 % 1006,4 hPa 0,0 l/m 15,6 km/h (3 Bft) E-NE 0,00 h 0,254 mm 122 W/m 17,7 C 21,0 C 22,2 km/h (4 Bft)
26/05/2007 13:00 20,5 C 88 % 1005,8 hPa 0,4 l/m 15,4 km/h (3 Bft) E-NE 0,00 h 0,127 mm 205 W/m 18,5 C 20,5 C 20,8 km/h (4 Bft)
26/05/2007 14:00 22,1 C 76 % 1005,4 hPa 0,0 l/m 13,1 km/h (3 Bft) E-NE 0,00 h 0,152 mm 290 W/m 17,7 C 22,1 C 18,0 km/h (3 Bft)
26/05/2007 15:00 23,8 C 69 % 1005,0 hPa 0,0 l/m 8,5 km/h (2 Bft) E 0,62 h 0,229 mm 572 W/m 17,8 C 23,8 C 13,4 km/h (3 Bft)
26/05/2007 16:00 24,1 C 66 % 1004,6 hPa 0,0 l/m 5,6 km/h (1 Bft) E 1,00 h 0,406 mm 622 W/m 17,4 C 24,1 C 10,3 km/h (2 Bft)
26/05/2007 17:00 23,9 C 68 % 1004,2 hPa 0,0 l/m 7,9 km/h (2 Bft) E 0,83 h 0,381 mm 413 W/m 17,6 C 23,9 C 12,8 km/h (3 Bft)
26/05/2007 18:00 22,7 C 75 % 1004,1 hPa 0,0 l/m 5,0 km/h (1 Bft) E 0,78 h 0,305 mm 272 W/m 18,0 C 22,7 C 9,2 km/h (2 Bft)
26/05/2007 19:00 21,2 C 80 % 1004,1 hPa 0,0 l/m 2,9 km/h (1 Bft) E 0,17 h 0,178 mm 75 W/m 17,6 C 21,2 C 5,8 km/h (2 Bft)
26/05/2007 20:00 19,7 C 85 % 1003,9 hPa 0,0 l/m 4,2 km/h (1 Bft) SO 0,00 h 0,051 mm 10 W/m 17,1 C 19,7 C 6,2 km/h (2 Bft)
26/05/2007 21:00 18,4 C 89 % 1003,9 hPa 0,0 l/m 6,2 km/h (2 Bft) SO 0,00 h 0,025 mm 0 W/m 16,5 C 18,4 C 8,4 km/h (2 Bft)
26/05/2007 22:00 17,6 C 90 % 1004,2 hPa 0,0 l/m 3,8 km/h (1 Bft) O 0,00 h 0,025 mm 0 W/m 16,0 C 17,6 C 5,7 km/h (1 Bft)
26/05/2007 23:00 17,1 C 92 % 1004,6 hPa 0,0 l/m 5,1 km/h (1 Bft) O-SO 0,00 h 0,025 mm 0 W/m 15,8 C 17,1 C 7,1 km/h (2 Bft)
27/05/2007 00:00 16,6 C 93 % 1004,5 hPa 0,0 l/m 6,5 km/h (2 Bft) NO 0,00 h 0,025 mm 0 W/m 15,5 C 16,6 C 8,9 km/h (2 Bft)
27/05/2007 01:00 16,0 C 92 % 1004,2 hPa 0,0 l/m 0,9 km/h (0 Bft) NO 0,00 h 0,025 mm 0 W/m 14,7 C 16,0 C 2,5 km/h (1 Bft)
27/05/2007 02:00 15,5 C 92 % 1003,5 hPa 0,0 l/m 0,3 km/h (0 Bft) NO 0,00 h 0,000 mm 0 W/m 14,2 C 15,5 C 1,3 km/h (1 Bft)
27/05/2007 03:00 15,4 C 93 % 1003,0 hPa 0,0 l/m 2,7 km/h (1 Bft) O 0,00 h 0,000 mm 0 W/m 14,2 C 15,4 C 3,9 km/h (1 Bft)
27/05/2007 04:00 15,3 C 90 % 1002,5 hPa 0,0 l/m 5,0 km/h (1 Bft) O 0,00 h 0,025 mm 0 W/m 13,6 C 15,3 C 7,0 km/h (2 Bft)
27/05/2007 05:00 15,3 C 79 % 1002,6 hPa 0,0 l/m 6,4 km/h (2 Bft) O-NO 0,00 h 0,025 mm 5 W/m 11,5 C 15,3 C 9,2 km/h (2 Bft)
27/05/2007 06:00 15,7 C 76 % 1002,3 hPa 0,0 l/m 4,4 km/h (1 Bft) O-NO 0,23 h 0,025 mm 34 W/m 11,5 C 15,7 C 7,3 km/h (2 Bft)
27/05/2007 07:00 17,4 C 72 % 1002,5 hPa 0,0 l/m 0,1 km/h (0 Bft) O-NO 0,63 h 0,051 mm 148 W/m 12,2 C 17,4 C 0,4 km/h (0 Bft)
27/05/2007 08:00 19,7 C 67 % 1002,4 hPa 0,0 l/m 2,2 km/h (1 Bft) E-SE 1,00 h 0,076 mm 357 W/m 13,4 C 19,7 C 4,4 km/h (1 Bft)
27/05/2007 09:00 20,9 C 69 % 1002,3 hPa 0,0 l/m 5,0 km/h (1 Bft) S 1,00 h 0,229 mm 552 W/m 15,0 C 20,9 C 9,0 km/h (2 Bft)
27/05/2007 10:00 21,4 C 70 % 1001,9 hPa 0,0 l/m 7,4 km/h (2 Bft) S 0,35 h 0,356 mm 431 W/m 15,7 C 21,4 C 12,5 km/h (3 Bft)
27/05/2007 11:00 22,5 C 62 % 1001,4 hPa 0,0 l/m 18,5 km/h (3 Bft) S 0,97 h 0,305 mm 819 W/m 14,9 C 22,5 C 25,1 km/h (4 Bft)
27/05/2007 12:00 23,5 C 54 % 1001,0 hPa 0,0 l/m 22,1 km/h (4 Bft) S-SO 1,00 h 0,610 mm 978 W/m 13,8 C 23,5 C 29,7 km/h (5 Bft)
27/05/2007 13:00 24,7 C 49 % 1000,8 hPa 0,0 l/m 13,4 km/h (3 Bft) SO 1,00 h 0,762 mm 995 W/m 13,2 C 24,7 C 19,8 km/h (3 Bft)
27/05/2007 14:00 24,4 C 51 % 1000,3 hPa 0,0 l/m 10,5 km/h (2 Bft) S 0,43 h 0,711 mm 610 W/m 13,6 C 24,4 C 16,6 km/h (3 Bft)
27/05/2007 15:00 24,9 C 49 % 999,5 hPa 0,0 l/m 17,0 km/h (3 Bft) S 0,88 h 0,508 mm 807 W/m 13,4 C 24,9 C 24,2 km/h (4 Bft)
27/05/2007 16:00 24,7 C 50 % 998,5 hPa 0,0 l/m 19,5 km/h (3 Bft) S 0,68 h 0,635 mm 559 W/m 13,7 C 24,7 C 26,3 km/h (4 Bft)
27/05/2007 17:00 25,2 C 45 % 998,1 hPa 0,0 l/m 19,0 km/h (3 Bft) O-SO 1,00 h 0,508 mm 543 W/m 12,3 C 25,2 C 25,9 km/h (4 Bft)
27/05/2007 18:00 24,5 C 41 % 997,8 hPa 0,0 l/m 24,0 km/h (4 Bft) SO 0,85 h 0,508 mm 358 W/m 10,2 C 24,5 C 31,4 km/h (5 Bft)
27/05/2007 19:00 23,0 C 43 % 997,5 hPa 0,0 l/m 21,2 km/h (4 Bft) SO 0,57 h 0,457 mm 132 W/m 9,9 C 23,0 C 27,3 km/h (4 Bft)
27/05/2007 20:00 21,0 C 46 % 997,5 hPa 0,0 l/m 25,9 km/h (4 Bft) SO 0,00 h 0,279 mm 24 W/m 9,0 C 21,0 C 32,8 km/h (5 Bft)
27/05/2007 21:00 19,5 C 50 % 997,5 hPa 0,0 l/m 25,1 km/h (4 Bft) O-SO 0,00 h 0,229 mm 0 W/m 8,9 C 19,5 C 32,4 km/h (5 Bft)
27/05/2007 22:00 17,8 C 59 % 997,8 hPa 0,0 l/m 25,8 km/h (4 Bft) O-SO 0,00 h 0,178 mm 0 W/m 9,5 C 17,8 C 33,8 km/h (5 Bft)
27/05/2007 23:00 16,6 C 63 % 997,3 hPa 0,0 l/m 26,7 km/h (4 Bft) O-SO 0,00 h 0,152 mm 0 W/m 9,5 C 16,6 C 34,8 km/h (5 Bft)
Min-Date _ 27/05/07 25/05/07 27/05/07 - 21/05/07 - - - - 27/05/07 27/05/07 21/05/07
_ Min-Heure 03:05 14:44 23:45 - 00:02 - - - - 20:43 03:05 00:02
Minimum _ 14,7 C 30 % 997,0 hPa - 0,0 km/h (0 Bft) - - - - 8,3 C 14,7 C 0,0 km/h (0 Bft)
Max-Date _ 25/05/07 26/05/07 21/05/07 26/05/07 27/05/07 - 21/05/07 27/05/07 27/05/07 26/05/07 25/05/07 27/05/07
_ Max-Heure 15:23 23:49 14:00 13:00 21:27 - 06:12 13:01 12:42 13:48 15:23 20:01
Maximum _ 31,4 C 93 % 1015,6 hPa 0,4 l/m 35,4 km/h
O-SO (5 Bft)
- 0,02 h 0,762 mm 1127 W/m 18,8 C 31,4 C 43,5 km/h
SO (6 Bft)
Moyenne _ 22,7 C 58 % 1009,7 hPa #0,4 l/m 5,4 km/h (1 Bft) E #62:59 h #35,786 mm 391 W/m 13,7 C 22,7 C 8,2 km/h (2 Bft)
Roquefort les pins